sensor_id;sensor_type;location;lat;lon;timestamp;P1;durP1;ratioP1;P2;durP2;ratioP2
50337;SDS011;46221;51.178;5.900;2022-09-14T00:00:51;4.57;;;1.80;;
50337;SDS011;46221;51.178;5.900;2022-09-14T00:03:37;5.15;;;1.73;;
50337;SDS011;46221;51.178;5.900;2022-09-14T00:06:05;3.65;;;1.50;;
50337;SDS011;46221;51.178;5.900;2022-09-14T00:08:31;3.80;;;1.75;;
50337;SDS011;46221;51.178;5.900;2022-09-14T00:10:58;4.22;;;2.00;;
50337;SDS011;46221;51.178;5.900;2022-09-14T00:13:28;6.00;;;1.65;;
50337;SDS011;46221;51.178;5.900;2022-09-14T00:15:54;3.15;;;1.50;;
50337;SDS011;46221;51.178;5.900;2022-09-14T00:18:21;3.28;;;1.70;;
50337;SDS011;46221;51.178;5.900;2022-09-14T00:20:47;4.32;;;1.67;;
50337;SDS011;46221;51.178;5.900;2022-09-14T00:23:13;5.47;;;1.70;;
50337;SDS011;46221;51.178;5.900;2022-09-14T00:25:39;4.32;;;1.38;;
50337;SDS011;46221;51.178;5.900;2022-09-14T00:28:06;3.83;;;1.48;;
50337;SDS011;46221;51.178;5.900;2022-09-14T00:30:32;3.20;;;1.20;;
50337;SDS011;46221;51.178;5.900;2022-09-14T00:32:58;4.38;;;1.42;;
50337;SDS011;46221;51.178;5.900;2022-09-14T00:35:25;3.90;;;1.70;;
50337;SDS011;46221;51.178;5.900;2022-09-14T00:37:51;5.72;;;1.65;;
50337;SDS011;46221;51.178;5.900;2022-09-14T00:40:17;3.30;;;1.70;;
50337;SDS011;46221;51.178;5.900;2022-09-14T00:42:44;3.42;;;1.42;;
50337;SDS011;46221;51.178;5.900;2022-09-14T00:45:12;3.20;;;1.42;;
50337;SDS011;46221;51.178;5.900;2022-09-14T00:47:39;3.58;;;1.20;;
50337;SDS011;46221;51.178;5.900;2022-09-14T00:50:06;2.50;;;1.30;;
50337;SDS011;46221;51.178;5.900;2022-09-14T00:52:33;3.30;;;1.60;;
50337;SDS011;46221;51.178;5.900;2022-09-14T00:55:02;3.78;;;1.33;;
50337;SDS011;46221;51.178;5.900;2022-09-14T00:57:30;3.03;;;1.20;;
50337;SDS011;46221;51.178;5.900;2022-09-14T00:59:59;5.25;;;1.45;;
50337;SDS011;46221;51.178;5.900;2022-09-14T01:02:26;3.72;;;1.70;;
50337;SDS011;46221;51.178;5.900;2022-09-14T01:04:52;4.13;;;1.55;;
50337;SDS011;46221;51.178;5.900;2022-09-14T01:09:55;3.65;;;1.20;;
50337;SDS011;46221;51.178;5.900;2022-09-14T01:15:07;5.03;;;1.38;;
50337;SDS011;46221;51.178;5.900;2022-09-14T01:17:46;4.43;;;1.20;;
50337;SDS011;46221;51.178;5.900;2022-09-14T01:20:21;2.85;;;1.10;;
50337;SDS011;46221;51.178;5.900;2022-09-14T01:27:52;2.58;;;1.42;;
50337;SDS011;46221;51.178;5.900;2022-09-14T01:30:21;4.38;;;1.27;;
50337;SDS011;46221;51.178;5.900;2022-09-14T01:32:49;4.93;;;1.58;;
50337;SDS011;46221;51.178;5.900;2022-09-14T01:35:21;4.65;;;2.10;;
50337;SDS011;46221;51.178;5.900;2022-09-14T01:37:50;3.20;;;1.50;;
50337;SDS011;46221;51.178;5.900;2022-09-14T01:40:21;5.20;;;1.88;;
50337;SDS011;46221;51.178;5.900;2022-09-14T01:42:50;4.95;;;1.40;;
50337;SDS011;46221;51.178;5.900;2022-09-14T01:45:18;3.53;;;1.60;;
50337;SDS011;46221;51.178;5.900;2022-09-14T01:47:47;4.82;;;1.38;;
50337;SDS011;46221;51.178;5.900;2022-09-14T01:50:17;5.90;;;1.30;;
50337;SDS011;46221;51.178;5.900;2022-09-14T01:52:46;5.38;;;1.77;;
50337;SDS011;46221;51.178;5.900;2022-09-14T01:58:07;3.20;;;1.52;;
50337;SDS011;46221;51.178;5.900;2022-09-14T02:00:35;2.47;;;1.30;;
50337;SDS011;46221;51.178;5.900;2022-09-14T02:03:06;4.55;;;1.20;;
50337;SDS011;46221;51.178;5.900;2022-09-14T02:05:38;4.07;;;2.08;;
50337;SDS011;46221;51.178;5.900;2022-09-14T02:08:06;3.17;;;1.60;;
50337;SDS011;46221;51.178;5.900;2022-09-14T02:10:32;3.47;;;1.17;;
50337;SDS011;46221;51.178;5.900;2022-09-14T02:12:58;4.63;;;1.60;;
50337;SDS011;46221;51.178;5.900;2022-09-14T02:15:25;3.47;;;1.25;;
50337;SDS011;46221;51.178;5.900;2022-09-14T02:17:52;4.43;;;1.45;;
50337;SDS011;46221;51.178;5.900;2022-09-14T02:23:17;4.90;;;1.92;;
50337;SDS011;46221;51.178;5.900;2022-09-14T02:25:44;4.25;;;1.58;;
50337;SDS011;46221;51.178;5.900;2022-09-14T02:28:11;3.35;;;1.30;;
50337;SDS011;46221;51.178;5.900;2022-09-14T02:31:04;4.05;;;1.20;;
50337;SDS011;46221;51.178;5.900;2022-09-14T02:33:44;4.80;;;1.83;;
50337;SDS011;46221;51.178;5.900;2022-09-14T02:36:15;2.53;;;1.20;;
50337;SDS011;46221;51.178;5.900;2022-09-14T02:38:45;3.80;;;1.30;;
50337;SDS011;46221;51.178;5.900;2022-09-14T02:41:25;3.22;;;1.95;;
50337;SDS011;46221;51.178;5.900;2022-09-14T02:46:46;3.50;;;1.55;;
50337;SDS011;46221;51.178;5.900;2022-09-14T02:51:46;4.40;;;1.80;;
50337;SDS011;46221;51.178;5.900;2022-09-14T02:54:21;3.75;;;1.30;;
50337;SDS011;46221;51.178;5.900;2022-09-14T02:56:48;4.80;;;1.77;;
50337;SDS011;46221;51.178;5.900;2022-09-14T02:59:15;4.88;;;1.30;;
50337;SDS011;46221;51.178;5.900;2022-09-14T03:01:42;4.90;;;1.50;;
50337;SDS011;46221;51.178;5.900;2022-09-14T03:04:08;4.43;;;1.70;;
50337;SDS011;46221;51.178;5.900;2022-09-14T03:06:34;2.67;;;1.13;;
50337;SDS011;46221;51.178;5.900;2022-09-14T03:09:01;2.80;;;1.10;;
50337;SDS011;46221;51.178;5.900;2022-09-14T03:11:27;4.78;;;1.10;;
50337;SDS011;46221;51.178;5.900;2022-09-14T03:13:53;3.63;;;1.23;;
50337;SDS011;46221;51.178;5.900;2022-09-14T03:16:20;2.80;;;1.50;;
50337;SDS011;46221;51.178;5.900;2022-09-14T03:18:46;3.15;;;1.40;;
50337;SDS011;46221;51.178;5.900;2022-09-14T03:21:13;3.35;;;1.20;;
50337;SDS011;46221;51.178;5.900;2022-09-14T03:23:41;2.63;;;1.10;;
50337;SDS011;46221;51.178;5.900;2022-09-14T03:26:09;4.00;;;1.30;;
50337;SDS011;46221;51.178;5.900;2022-09-14T03:28:35;3.25;;;1.15;;
50337;SDS011;46221;51.178;5.900;2022-09-14T03:31:02;2.65;;;1.33;;
50337;SDS011;46221;51.178;5.900;2022-09-14T03:33:29;4.75;;;1.40;;
50337;SDS011;46221;51.178;5.900;2022-09-14T03:35:56;3.95;;;1.40;;
50337;SDS011;46221;51.178;5.900;2022-09-14T03:38:22;2.90;;;1.20;;
50337;SDS011;46221;51.178;5.900;2022-09-14T03:40:49;3.42;;;1.20;;
50337;SDS011;46221;51.178;5.900;2022-09-14T03:43:15;3.15;;;1.17;;
50337;SDS011;46221;51.178;5.900;2022-09-14T03:45:41;3.22;;;1.10;;
50337;SDS011;46221;51.178;5.900;2022-09-14T03:48:08;4.45;;;1.60;;
50337;SDS011;46221;51.178;5.900;2022-09-14T03:50:36;2.95;;;1.30;;
50337;SDS011;46221;51.178;5.900;2022-09-14T03:53:03;5.32;;;1.38;;
50337;SDS011;46221;51.178;5.900;2022-09-14T03:55:29;3.92;;;1.20;;
50337;SDS011;46221;51.178;5.900;2022-09-14T03:57:56;3.33;;;1.30;;
50337;SDS011;46221;51.178;5.900;2022-09-14T04:00:22;4.38;;;1.20;;
50337;SDS011;46221;51.178;5.900;2022-09-14T04:02:49;3.97;;;1.25;;
50337;SDS011;46221;51.178;5.900;2022-09-14T04:05:16;4.72;;;1.40;;
50337;SDS011;46221;51.178;5.900;2022-09-14T04:07:46;3.60;;;1.30;;
50337;SDS011;46221;51.178;5.900;2022-09-14T04:10:13;3.88;;;1.25;;
50337;SDS011;46221;51.178;5.900;2022-09-14T04:12:39;4.00;;;1.13;;
50337;SDS011;46221;51.178;5.900;2022-09-14T04:15:06;3.50;;;1.33;;
50337;SDS011;46221;51.178;5.900;2022-09-14T04:17:33;2.60;;;1.13;;
50337;SDS011;46221;51.178;5.900;2022-09-14T04:19:59;3.67;;;1.05;;
50337;SDS011;46221;51.178;5.900;2022-09-14T04:22:25;2.83;;;1.13;;
50337;SDS011;46221;51.178;5.900;2022-09-14T04:24:52;3.47;;;1.20;;
50337;SDS011;46221;51.178;5.900;2022-09-14T04:27:18;3.33;;;1.40;;
50337;SDS011;46221;51.178;5.900;2022-09-14T04:29:47;4.53;;;1.23;;
50337;SDS011;46221;51.178;5.900;2022-09-14T04:32:13;5.00;;;1.70;;
50337;SDS011;46221;51.178;5.900;2022-09-14T04:34:40;5.10;;;1.25;;
50337;SDS011;46221;51.178;5.900;2022-09-14T04:37:06;4.32;;;1.17;;
50337;SDS011;46221;51.178;5.900;2022-09-14T04:39:32;3.65;;;1.30;;
50337;SDS011;46221;51.178;5.900;2022-09-14T04:41:59;2.42;;;1.38;;
50337;SDS011;46221;51.178;5.900;2022-09-14T04:44:25;2.92;;;1.02;;
50337;SDS011;46221;51.178;5.900;2022-09-14T04:46:51;2.35;;;1.20;;
50337;SDS011;46221;51.178;5.900;2022-09-14T04:49:18;6.93;;;1.73;;
50337;SDS011;46221;51.178;5.900;2022-09-14T04:51:46;4.40;;;1.30;;
50337;SDS011;46221;51.178;5.900;2022-09-14T04:54:14;2.55;;;1.33;;
50337;SDS011;46221;51.178;5.900;2022-09-14T04:56:40;4.20;;;1.50;;
50337;SDS011;46221;51.178;5.900;2022-09-14T04:59:07;5.43;;;1.85;;
50337;SDS011;46221;51.178;5.900;2022-09-14T05:01:34;5.72;;;1.13;;
50337;SDS011;46221;51.178;5.900;2022-09-14T05:04:02;7.00;;;2.00;;
50337;SDS011;46221;51.178;5.900;2022-09-14T05:06:30;6.55;;;1.90;;
50337;SDS011;46221;51.178;5.900;2022-09-14T05:08:57;9.43;;;2.58;;
50337;SDS011;46221;51.178;5.900;2022-09-14T05:11:29;9.68;;;2.10;;
50337;SDS011;46221;51.178;5.900;2022-09-14T05:13:56;10.63;;;2.20;;
50337;SDS011;46221;51.178;5.900;2022-09-14T05:16:24;8.23;;;3.15;;
50337;SDS011;46221;51.178;5.900;2022-09-14T05:18:55;6.28;;;1.65;;
50337;SDS011;46221;51.178;5.900;2022-09-14T05:21:22;6.85;;;1.90;;
50337;SDS011;46221;51.178;5.900;2022-09-14T05:23:52;11.13;;;2.15;;
50337;SDS011;46221;51.178;5.900;2022-09-14T05:26:18;6.03;;;1.73;;
50337;SDS011;46221;51.178;5.900;2022-09-14T05:28:47;6.07;;;1.60;;
50337;SDS011;46221;51.178;5.900;2022-09-14T05:31:14;6.80;;;1.42;;
50337;SDS011;46221;51.178;5.900;2022-09-14T05:33:42;5.63;;;1.67;;
50337;SDS011;46221;51.178;5.900;2022-09-14T05:36:08;8.88;;;1.80;;
50337;SDS011;46221;51.178;5.900;2022-09-14T05:38:35;8.65;;;2.30;;
50337;SDS011;46221;51.178;5.900;2022-09-14T05:41:03;5.07;;;2.03;;
50337;SDS011;46221;51.178;5.900;2022-09-14T05:43:29;7.20;;;1.80;;
50337;SDS011;46221;51.178;5.900;2022-09-14T05:45:59;8.18;;;1.88;;
50337;SDS011;46221;51.178;5.900;2022-09-14T05:48:29;5.65;;;1.48;;
50337;SDS011;46221;51.178;5.900;2022-09-14T05:51:02;5.47;;;1.52;;
50337;SDS011;46221;51.178;5.900;2022-09-14T05:53:29;4.20;;;1.40;;
50337;SDS011;46221;51.178;5.900;2022-09-14T05:56:03;5.75;;;1.60;;
50337;SDS011;46221;51.178;5.900;2022-09-14T05:58:30;5.00;;;1.30;;
50337;SDS011;46221;51.178;5.900;2022-09-14T06:00:56;7.50;;;1.60;;
50337;SDS011;46221;51.178;5.900;2022-09-14T06:03:22;3.65;;;1.23;;
50337;SDS011;46221;51.178;5.900;2022-09-14T06:05:49;5.32;;;1.90;;
50337;SDS011;46221;51.178;5.900;2022-09-14T06:08:15;3.92;;;1.17;;
50337;SDS011;46221;51.178;5.900;2022-09-14T06:10:42;5.18;;;1.35;;
50337;SDS011;46221;51.178;5.900;2022-09-14T06:13:08;4.47;;;1.17;;
50337;SDS011;46221;51.178;5.900;2022-09-14T06:15:35;4.05;;;1.38;;
50337;SDS011;46221;51.178;5.900;2022-09-14T06:18:02;3.55;;;1.30;;
50337;SDS011;46221;51.178;5.900;2022-09-14T06:20:29;5.35;;;1.20;;
50337;SDS011;46221;51.178;5.900;2022-09-14T06:22:56;5.40;;;1.65;;
50337;SDS011;46221;51.178;5.900;2022-09-14T06:25:22;4.07;;;1.25;;
50337;SDS011;46221;51.178;5.900;2022-09-14T06:27:51;3.20;;;1.00;;
50337;SDS011;46221;51.178;5.900;2022-09-14T06:30:18;3.13;;;0.95;;
50337;SDS011;46221;51.178;5.900;2022-09-14T06:32:44;4.97;;;1.20;;
50337;SDS011;46221;51.178;5.900;2022-09-14T06:35:10;3.53;;;1.10;;
50337;SDS011;46221;51.178;5.900;2022-09-14T06:37:37;3.88;;;1.50;;
50337;SDS011;46221;51.178;5.900;2022-09-14T06:40:04;3.45;;;1.10;;
50337;SDS011;46221;51.178;5.900;2022-09-14T06:42:31;4.53;;;1.65;;
50337;SDS011;46221;51.178;5.900;2022-09-14T06:44:57;4.00;;;1.20;;
50337;SDS011;46221;51.178;5.900;2022-09-14T06:47:23;3.03;;;1.02;;
50337;SDS011;46221;51.178;5.900;2022-09-14T06:49:50;4.30;;;1.30;;
50337;SDS011;46221;51.178;5.900;2022-09-14T06:52:17;3.90;;;1.40;;
50337;SDS011;46221;51.178;5.900;2022-09-14T06:54:43;4.32;;;1.23;;
50337;SDS011;46221;51.178;5.900;2022-09-14T06:57:09;3.95;;;0.98;;
50337;SDS011;46221;51.178;5.900;2022-09-14T06:59:35;4.22;;;1.73;;
50337;SDS011;46221;51.178;5.900;2022-09-14T07:02:02;3.40;;;1.30;;
50337;SDS011;46221;51.178;5.900;2022-09-14T07:04:28;4.45;;;1.10;;
50337;SDS011;46221;51.178;5.900;2022-09-14T07:06:55;3.35;;;1.10;;
50337;SDS011;46221;51.178;5.900;2022-09-14T07:09:21;4.38;;;1.20;;
50337;SDS011;46221;51.178;5.900;2022-09-14T07:11:47;4.70;;;1.15;;
50337;SDS011;46221;51.178;5.900;2022-09-14T07:14:14;4.85;;;1.20;;
50337;SDS011;46221;51.178;5.900;2022-09-14T07:16:41;3.53;;;1.20;;
50337;SDS011;46221;51.178;5.900;2022-09-14T07:19:11;3.25;;;1.08;;
50337;SDS011;46221;51.178;5.900;2022-09-14T07:21:38;3.90;;;1.05;;
50337;SDS011;46221;51.178;5.900;2022-09-14T07:24:04;3.95;;;1.10;;
50337;SDS011;46221;51.178;5.900;2022-09-14T07:26:32;3.78;;;1.13;;
50337;SDS011;46221;51.178;5.900;2022-09-14T07:29:00;2.30;;;1.08;;
50337;SDS011;46221;51.178;5.900;2022-09-14T07:31:28;4.00;;;1.30;;
50337;SDS011;46221;51.178;5.900;2022-09-14T07:33:56;3.03;;;1.02;;
50337;SDS011;46221;51.178;5.900;2022-09-14T07:36:22;6.35;;;1.30;;
50337;SDS011;46221;51.178;5.900;2022-09-14T07:38:50;3.33;;;1.17;;
50337;SDS011;46221;51.178;5.900;2022-09-14T07:41:22;3.67;;;1.00;;
50337;SDS011;46221;51.178;5.900;2022-09-14T07:43:52;2.67;;;0.90;;
50337;SDS011;46221;51.178;5.900;2022-09-14T07:46:19;3.90;;;1.00;;
50337;SDS011;46221;51.178;5.900;2022-09-14T07:48:47;3.58;;;1.40;;
50337;SDS011;46221;51.178;5.900;2022-09-14T07:51:15;3.15;;;1.10;;
50337;SDS011;46221;51.178;5.900;2022-09-14T07:53:41;4.93;;;1.15;;
50337;SDS011;46221;51.178;5.900;2022-09-14T07:56:09;5.15;;;1.30;;
50337;SDS011;46221;51.178;5.900;2022-09-14T07:58:35;2.83;;;0.93;;
50337;SDS011;46221;51.178;5.900;2022-09-14T08:01:03;3.78;;;1.58;;
50337;SDS011;46221;51.178;5.900;2022-09-14T08:03:30;3.72;;;1.42;;
50337;SDS011;46221;51.178;5.900;2022-09-14T08:06:01;4.05;;;1.33;;
50337;SDS011;46221;51.178;5.900;2022-09-14T08:08:28;3.65;;;1.10;;
50337;SDS011;46221;51.178;5.900;2022-09-14T08:11:01;4.43;;;1.10;;
50337;SDS011;46221;51.178;5.900;2022-09-14T08:13:27;4.25;;;1.02;;
50337;SDS011;46221;51.178;5.900;2022-09-14T08:15:54;4.47;;;1.60;;
50337;SDS011;46221;51.178;5.900;2022-09-14T08:18:24;3.97;;;1.27;;
50337;SDS011;46221;51.178;5.900;2022-09-14T08:20:50;3.60;;;1.20;;
50337;SDS011;46221;51.178;5.900;2022-09-14T08:23:16;3.17;;;1.45;;
50337;SDS011;46221;51.178;5.900;2022-09-14T08:25:42;3.33;;;1.05;;
50337;SDS011;46221;51.178;5.900;2022-09-14T08:28:09;4.00;;;1.10;;
50337;SDS011;46221;51.178;5.900;2022-09-14T08:30:35;4.93;;;1.58;;
50337;SDS011;46221;51.178;5.900;2022-09-14T08:33:04;2.05;;;0.90;;
50337;SDS011;46221;51.178;5.900;2022-09-14T08:35:30;3.58;;;1.40;;
50337;SDS011;46221;51.178;5.900;2022-09-14T08:38:16;4.35;;;1.13;;
50337;SDS011;46221;51.178;5.900;2022-09-14T08:40:43;4.53;;;1.15;;
50337;SDS011;46221;51.178;5.900;2022-09-14T08:43:13;4.15;;;1.65;;
50337;SDS011;46221;51.178;5.900;2022-09-14T08:45:41;3.97;;;1.75;;
50337;SDS011;46221;51.178;5.900;2022-09-14T08:48:10;3.58;;;1.40;;
50337;SDS011;46221;51.178;5.900;2022-09-14T08:50:41;3.20;;;1.30;;
50337;SDS011;46221;51.178;5.900;2022-09-14T08:53:07;2.75;;;1.20;;
50337;SDS011;46221;51.178;5.900;2022-09-14T08:58:02;3.60;;;1.55;;
50337;SDS011;46221;51.178;5.900;2022-09-14T09:00:41;3.10;;;1.50;;
50337;SDS011;46221;51.178;5.900;2022-09-14T09:05:57;5.38;;;1.60;;
50337;SDS011;46221;51.178;5.900;2022-09-14T09:08:31;4.88;;;1.65;;
50337;SDS011;46221;51.178;5.900;2022-09-14T09:10:58;4.13;;;1.92;;
50337;SDS011;46221;51.178;5.900;2022-09-14T09:13:28;4.00;;;2.05;;
50337;SDS011;46221;51.178;5.900;2022-09-14T09:15:57;3.65;;;1.60;;
50337;SDS011;46221;51.178;5.900;2022-09-14T09:21:04;3.42;;;1.80;;
50337;SDS011;46221;51.178;5.900;2022-09-14T09:23:31;2.83;;;1.60;;
50337;SDS011;46221;51.178;5.900;2022-09-14T09:28:37;6.53;;;1.95;;
50337;SDS011;46221;51.178;5.900;2022-09-14T09:31:05;3.78;;;2.03;;
50337;SDS011;46221;51.178;5.900;2022-09-14T09:33:36;3.20;;;1.63;;
50337;SDS011;46221;51.178;5.900;2022-09-14T09:36:03;3.08;;;1.58;;
50337;SDS011;46221;51.178;5.900;2022-09-14T09:38:31;3.05;;;1.70;;
50337;SDS011;46221;51.178;5.900;2022-09-14T09:41:03;3.95;;;1.77;;
50337;SDS011;46221;51.178;5.900;2022-09-14T09:43:30;3.00;;;1.63;;
50337;SDS011;46221;51.178;5.900;2022-09-14T09:46:14;3.60;;;1.90;;
50337;SDS011;46221;51.178;5.900;2022-09-14T09:48:42;4.88;;;1.70;;
50337;SDS011;46221;51.178;5.900;2022-09-14T09:51:10;5.15;;;1.70;;
50337;SDS011;46221;51.178;5.900;2022-09-14T09:53:45;4.30;;;2.05;;
50337;SDS011;46221;51.178;5.900;2022-09-14T09:56:20;3.55;;;1.48;;
50337;SDS011;46221;51.178;5.900;2022-09-14T09:58:47;3.40;;;1.70;;
50337;SDS011;46221;51.178;5.900;2022-09-14T10:01:21;3.05;;;1.70;;
50337;SDS011;46221;51.178;5.900;2022-09-14T10:06:30;3.08;;;1.70;;
50337;SDS011;46221;51.178;5.900;2022-09-14T10:08:56;5.03;;;1.98;;
50337;SDS011;46221;51.178;5.900;2022-09-14T10:11:34;2.40;;;1.23;;
50337;SDS011;46221;51.178;5.900;2022-09-14T10:14:05;2.35;;;1.40;;
50337;SDS011;46221;51.178;5.900;2022-09-14T10:16:43;3.13;;;1.77;;
50337;SDS011;46221;51.178;5.900;2022-09-14T10:19:14;2.67;;;1.15;;
50337;SDS011;46221;51.178;5.900;2022-09-14T10:22:27;2.47;;;1.15;;
50337;SDS011;46221;51.178;5.900;2022-09-14T10:24:27;2.08;;;1.17;;
50337;SDS011;46221;51.178;5.900;2022-09-14T10:26:53;3.08;;;1.30;;
50337;SDS011;46221;51.178;5.900;2022-09-14T10:31:46;1.90;;;1.20;;
50337;SDS011;46221;51.178;5.900;2022-09-14T10:34:16;2.25;;;1.20;;
50337;SDS011;46221;51.178;5.900;2022-09-14T10:36:46;2.13;;;1.10;;
50337;SDS011;46221;51.178;5.900;2022-09-14T10:39:22;2.08;;;0.90;;
50337;SDS011;46221;51.178;5.900;2022-09-14T10:41:57;2.85;;;1.02;;
50337;SDS011;46221;51.178;5.900;2022-09-14T10:49:41;2.35;;;0.80;;
50337;SDS011;46221;51.178;5.900;2022-09-14T11:00:14;2.22;;;0.90;;
50337;SDS011;46221;51.178;5.900;2022-09-14T11:05:36;1.15;;;0.75;;
50337;SDS011;46221;51.178;5.900;2022-09-14T11:08:15;1.85;;;0.90;;
50337;SDS011;46221;51.178;5.900;2022-09-14T11:11:03;2.33;;;0.93;;
50337;SDS011;46221;51.178;5.900;2022-09-14T11:26:23;3.60;;;1.17;;
50337;SDS011;46221;51.178;5.900;2022-09-14T11:28:51;3.45;;;1.10;;
50337;SDS011;46221;51.178;5.900;2022-09-14T11:31:24;1.60;;;0.90;;
50337;SDS011;46221;51.178;5.900;2022-09-14T11:33:56;2.47;;;0.90;;
50337;SDS011;46221;51.178;5.900;2022-09-14T11:36:25;4.28;;;1.50;;
50337;SDS011;46221;51.178;5.900;2022-09-14T11:38:54;3.53;;;1.23;;
50337;SDS011;46221;51.178;5.900;2022-09-14T11:41:29;5.35;;;1.20;;
50337;SDS011;46221;51.178;5.900;2022-09-14T11:43:57;5.28;;;1.10;;
50337;SDS011;46221;51.178;5.900;2022-09-14T11:46:29;3.65;;;1.17;;
50337;SDS011;46221;51.178;5.900;2022-09-14T11:53:59;3.65;;;1.17;;
50337;SDS011;46221;51.178;5.900;2022-09-14T11:56:29;6.68;;;1.33;;
50337;SDS011;46221;51.178;5.900;2022-09-14T11:59:03;3.83;;;1.20;;
50337;SDS011;46221;51.178;5.900;2022-09-14T12:01:37;6.78;;;1.70;;
50337;SDS011;46221;51.178;5.900;2022-09-14T12:04:08;2.35;;;1.20;;
50337;SDS011;46221;51.178;5.900;2022-09-14T12:11:50;4.55;;;1.23;;
50337;SDS011;46221;51.178;5.900;2022-09-14T12:19:48;2.80;;;1.02;;
50337;SDS011;46221;51.178;5.900;2022-09-14T12:22:27;2.90;;;1.13;;
50337;SDS011;46221;51.178;5.900;2022-09-14T12:24:57;2.80;;;1.27;;
50337;SDS011;46221;51.178;5.900;2022-09-14T12:27:25;3.47;;;1.10;;
50337;SDS011;46221;51.178;5.900;2022-09-14T12:29:54;4.78;;;1.20;;
50337;SDS011;46221;51.178;5.900;2022-09-14T12:32:25;3.95;;;1.20;;
50337;SDS011;46221;51.178;5.900;2022-09-14T12:35:34;3.70;;;1.85;;
50337;SDS011;46221;51.178;5.900;2022-09-14T12:37:44;4.43;;;1.50;;
50337;SDS011;46221;51.178;5.900;2022-09-14T12:40:12;3.80;;;1.35;;
50337;SDS011;46221;51.178;5.900;2022-09-14T12:42:48;4.40;;;1.35;;
50337;SDS011;46221;51.178;5.900;2022-09-14T12:47:59;3.75;;;1.10;;
50337;SDS011;46221;51.178;5.900;2022-09-14T12:50:26;3.90;;;1.30;;
50337;SDS011;46221;51.178;5.900;2022-09-14T12:53:04;2.05;;;1.13;;
50337;SDS011;46221;51.178;5.900;2022-09-14T12:55:54;2.95;;;1.50;;
50337;SDS011;46221;51.178;5.900;2022-09-14T12:58:40;3.67;;;1.30;;
50337;SDS011;46221;51.178;5.900;2022-09-14T13:03:50;2.53;;;1.02;;
50337;SDS011;46221;51.178;5.900;2022-09-14T13:06:17;3.05;;;1.00;;
50337;SDS011;46221;51.178;5.900;2022-09-14T13:08:45;3.70;;;1.17;;
50337;SDS011;46221;51.178;5.900;2022-09-14T13:11:19;3.08;;;1.10;;
50337;SDS011;46221;51.178;5.900;2022-09-14T13:13:46;1.92;;;1.10;;
50337;SDS011;46221;51.178;5.900;2022-09-14T13:16:14;3.65;;;1.30;;
50337;SDS011;46221;51.178;5.900;2022-09-14T13:18:42;2.78;;;1.20;;
50337;SDS011;46221;51.178;5.900;2022-09-14T13:21:19;4.43;;;1.30;;
50337;SDS011;46221;51.178;5.900;2022-09-14T13:23:46;3.20;;;1.17;;
50337;SDS011;46221;51.178;5.900;2022-09-14T13:26:20;4.13;;;1.30;;
50337;SDS011;46221;51.178;5.900;2022-09-14T13:28:47;2.90;;;1.20;;
50337;SDS011;46221;51.178;5.900;2022-09-14T13:31:19;3.03;;;1.27;;
50337;SDS011;46221;51.178;5.900;2022-09-14T13:33:47;3.30;;;1.30;;
50337;SDS011;46221;51.178;5.900;2022-09-14T13:36:21;2.85;;;1.13;;
50337;SDS011;46221;51.178;5.900;2022-09-14T13:38:48;4.60;;;1.50;;
50337;SDS011;46221;51.178;5.900;2022-09-14T13:41:16;2.88;;;1.10;;
50337;SDS011;46221;51.178;5.900;2022-09-14T13:43:43;3.55;;;1.58;;
50337;SDS011;46221;51.178;5.900;2022-09-14T13:46:10;4.38;;;1.30;;
50337;SDS011;46221;51.178;5.900;2022-09-14T13:48:45;2.90;;;1.17;;
50337;SDS011;46221;51.178;5.900;2022-09-14T13:51:12;3.42;;;1.40;;
50337;SDS011;46221;51.178;5.900;2022-09-14T13:58:43;3.83;;;1.50;;
50337;SDS011;46221;51.178;5.900;2022-09-14T14:01:09;2.67;;;1.10;;
50337;SDS011;46221;51.178;5.900;2022-09-14T14:03:40;2.15;;;1.05;;
50337;SDS011;46221;51.178;5.900;2022-09-14T14:06:26;2.42;;;1.13;;
50337;SDS011;46221;51.178;5.900;2022-09-14T14:08:57;3.53;;;1.27;;
50337;SDS011;46221;51.178;5.900;2022-09-14T14:11:26;2.53;;;1.15;;
50337;SDS011;46221;51.178;5.900;2022-09-14T14:13:53;2.40;;;1.05;;
50337;SDS011;46221;51.178;5.900;2022-09-14T14:16:21;3.30;;;1.25;;
50337;SDS011;46221;51.178;5.900;2022-09-14T14:18:52;3.67;;;1.20;;
50337;SDS011;46221;51.178;5.900;2022-09-14T14:23:49;2.88;;;1.20;;
50337;SDS011;46221;51.178;5.900;2022-09-14T14:26:35;4.38;;;1.35;;
50337;SDS011;46221;51.178;5.900;2022-09-14T14:29:08;3.13;;;1.10;;
50337;SDS011;46221;51.178;5.900;2022-09-14T14:31:35;4.05;;;1.17;;
50337;SDS011;46221;51.178;5.900;2022-09-14T14:34:09;3.00;;;0.93;;
50337;SDS011;46221;51.178;5.900;2022-09-14T14:36:35;2.92;;;1.15;;
50337;SDS011;46221;51.178;5.900;2022-09-14T14:39:02;3.47;;;1.20;;
50337;SDS011;46221;51.178;5.900;2022-09-14T14:41:28;3.10;;;1.17;;
50337;SDS011;46221;51.178;5.900;2022-09-14T14:43:54;3.65;;;1.25;;
50337;SDS011;46221;51.178;5.900;2022-09-14T14:46:21;2.40;;;1.00;;
50337;SDS011;46221;51.178;5.900;2022-09-14T14:48:47;3.65;;;1.13;;
50337;SDS011;46221;51.178;5.900;2022-09-14T14:51:13;2.42;;;1.15;;
50337;SDS011;46221;51.178;5.900;2022-09-14T14:53:40;3.05;;;1.05;;
50337;SDS011;46221;51.178;5.900;2022-09-14T14:56:09;2.85;;;1.05;;
50337;SDS011;46221;51.178;5.900;2022-09-14T14:58:40;3.00;;;0.93;;
50337;SDS011;46221;51.178;5.900;2022-09-14T15:01:07;2.75;;;1.08;;
50337;SDS011;46221;51.178;5.900;2022-09-14T15:03:33;4.13;;;1.27;;
50337;SDS011;46221;51.178;5.900;2022-09-14T15:06:09;3.03;;;1.10;;
50337;SDS011;46221;51.178;5.900;2022-09-14T15:08:35;5.72;;;1.38;;
50337;SDS011;46221;51.178;5.900;2022-09-14T15:11:02;2.40;;;1.02;;
50337;SDS011;46221;51.178;5.900;2022-09-14T15:13:28;2.95;;;1.20;;
50337;SDS011;46221;51.178;5.900;2022-09-14T15:15:54;2.00;;;0.90;;
50337;SDS011;46221;51.178;5.900;2022-09-14T15:18:21;3.70;;;1.20;;
50337;SDS011;46221;51.178;5.900;2022-09-14T15:20:47;2.25;;;0.80;;
50337;SDS011;46221;51.178;5.900;2022-09-14T15:23:15;3.90;;;1.30;;
50337;SDS011;46221;51.178;5.900;2022-09-14T15:25:41;5.40;;;1.38;;
50337;SDS011;46221;51.178;5.900;2022-09-14T15:28:08;2.90;;;1.20;;
50337;SDS011;46221;51.178;5.900;2022-09-14T15:30:34;2.92;;;1.17;;
50337;SDS011;46221;51.178;5.900;2022-09-14T15:33:01;4.00;;;1.10;;
50337;SDS011;46221;51.178;5.900;2022-09-14T15:35:28;3.70;;;1.35;;
50337;SDS011;46221;51.178;5.900;2022-09-14T15:37:54;4.68;;;1.63;;
50337;SDS011;46221;51.178;5.900;2022-09-14T15:40:21;2.78;;;1.20;;
50337;SDS011;46221;51.178;5.900;2022-09-14T15:42:47;2.45;;;1.17;;
50337;SDS011;46221;51.178;5.900;2022-09-14T15:45:13;2.97;;;1.30;;
50337;SDS011;46221;51.178;5.900;2022-09-14T15:47:40;4.07;;;1.30;;
50337;SDS011;46221;51.178;5.900;2022-09-14T15:50:07;3.20;;;1.50;;
50337;SDS011;46221;51.178;5.900;2022-09-14T15:52:34;4.65;;;1.60;;
50337;SDS011;46221;51.178;5.900;2022-09-14T15:55:01;5.95;;;1.88;;
50337;SDS011;46221;51.178;5.900;2022-09-14T15:57:28;3.58;;;1.80;;
50337;SDS011;46221;51.178;5.900;2022-09-14T15:59:54;4.18;;;1.52;;
50337;SDS011;46221;51.178;5.900;2022-09-14T16:02:21;3.47;;;1.40;;
50337;SDS011;46221;51.178;5.900;2022-09-14T16:04:47;3.67;;;1.73;;
50337;SDS011;46221;51.178;5.900;2022-09-14T16:07:13;4.13;;;1.40;;
50337;SDS011;46221;51.178;5.900;2022-09-14T16:09:40;8.10;;;2.97;;
50337;SDS011;46221;51.178;5.900;2022-09-14T16:12:07;6.10;;;1.92;;
50337;SDS011;46221;51.178;5.900;2022-09-14T16:14:34;5.53;;;2.05;;
50337;SDS011;46221;51.178;5.900;2022-09-14T16:17:00;5.82;;;2.03;;
50337;SDS011;46221;51.178;5.900;2022-09-14T16:19:27;4.95;;;2.00;;
50337;SDS011;46221;51.178;5.900;2022-09-14T16:21:53;6.40;;;2.45;;
50337;SDS011;46221;51.178;5.900;2022-09-14T16:24:20;7.18;;;2.45;;
50337;SDS011;46221;51.178;5.900;2022-09-14T16:26:47;10.63;;;3.10;;
50337;SDS011;46221;51.178;5.900;2022-09-14T16:29:14;8.65;;;2.80;;
50337;SDS011;46221;51.178;5.900;2022-09-14T16:31:41;8.95;;;2.72;;